Dobrodošli na spletni strani vremenske postaje Senovo. Vse informacije so informativnega značaja, saj vremenska postaja ni del državne mreže meteoroloških postaj.

NI AKTUALNIH OBVESTIL.


Nevihte Od: 25-05-2019 10:00 Do: 17:59 Opozorilo za: Nevihte Stopnja: Rumena info button

Pogled proti Armezu več informacij Pogled proti Armezu


Bohor več informacij Bohor


Lisca več informacij Lisca


opozorilo za Nevihte več informacij blitzortung!


Radar padavin več informacij rain snow radar


Obiščite še:

Template documentation
and downloads

And another site



METAR v bližini

   
LJLJ - Ljubljana
Posodobljeno: 25-05-2019 10:30
pretežno oblačno  
pretežno oblačno  
   Veter: VJV 3.7 km/h
Veter: VJV 3.7 km/h
Temperatura: 20°C
Točka rosišča: 11°C
Vlažnost: 56%
Zračni tlak: 1015 hPa
Oblaki: pretežno oblačno
Vidljivost: More than 10 km
Podrobnosti o oblakih: nekaj oblakov 1828.8 m,
pretežno oblačno 7620 m
LJLJ 250830Z 12002KT 9999 FEW060 BKN250 20/11 Q1015 NOSIG
LJCE - Cerklje ob Krki
Posodobljeno: 25-05-2019 10:30
nekaj oblakov  
nekaj oblakov  
   Veter: različen 3.7 km/h
Veter: različen 3.7 km/h
Temperatura: 21°C
Točka rosišča: 12°C
Vlažnost: 57%
Zračni tlak: 1015 hPa
Oblaki: nekaj oblakov
Vidljivost: More than 10 km
Podrobnosti o oblakih: nekaj oblakov 1066.8 m
LJCE 250830Z VRB02KT 9999 FEW035 21/12 Q1015 RMK BLU
LJMB - Maribor
Posodobljeno: 25-05-2019 10:30
delno oblačno  
delno oblačno  
   Veter: različen 3.7 km/h
Veter: različen 3.7 km/h
Temperatura: 21°C
Točka rosišča: 10°C
Vlažnost: 50%
Zračni tlak: 1015 hPa
Oblaki: delno oblačno
Vidljivost: More than 10 km
Podrobnosti o oblakih: nekaj oblakov 1310.6 m,
delno oblačno 7010.4 m
LJMB 250830Z VRB02KT 9999 FEW043 SCT230 21/10 Q1015
LJPZ - Portorož
Posodobljeno: 25-05-2019 10:30
jasno  
jasno  
   Veter: ZSZ 9.3 km/h
Veter: ZSZ 9.3 km/h
Temperatura: 20°C
Točka rosišča: 16°C
Vlažnost: 78%
Zračni tlak: 1014 hPa
Vidljivost: More than 10 km
Podrobnosti o oblakih: jasno
LJPZ 250830Z 29005KT CAVOK 20/16 Q1014
LDRI - Rijeka, Airport, Croatia
Posodobljeno: 25-05-2019 10:30
jasno  
jasno  
   Veter: VJV 11.1 km/h
Veter: VJV 11.1 km/h
Temperatura: 21°C
Točka rosišča: 11°C
Vlažnost: 53%
Zračni tlak: 1015 hPa
Vidljivost: More than 10 km
Podrobnosti o oblakih: jasno
LDRI 250830Z 12006KT 070V180 CAVOK 21/11 Q1015
LOWK - Klagenfurt, Airport, Avstia
Posodobljeno: 25-05-2019 10:20
delno oblačno  
delno oblačno  
   Veter: različen 3.7 km/h
Veter: različen 3.7 km/h
Temperatura: 18°C
Točka rosišča: 9°C
Vlažnost: 56%
Zračni tlak: 1015 hPa
Oblaki: delno oblačno
Vidljivost: More than 10 km
Podrobnosti o oblakih: nekaj oblakov 1524 m,
nekaj oblakov 1524 m,
delno oblačno 3657.6 m
LOWK 250820Z VRB02KT 9999 FEW050 FEW050CB SCT120 18/09 Q1015 NOSIG

Script developed by  Saratoga-weather.org Adapted for the template by  Weerstation Leuven

Vremenski podatki so objavljeni na:

European Weather Network

WeatherCloud

Weather Underground

AWEKAS

HAMweather, WeatherForYou, PWS Weather

MapView

Geostik

Slovenia weather network

Oprema, ki se uporablja:

Vremenski program
Cumulus

Vremenski server
Asus

Cumulus

Asus